Time;durP1;ratioP1;P1;durP2;ratioP2;P2;SDS_P1;SDS_P2;PMS_P1;PMS_P2;Temp;Humidity;BMP_temperature;BMP_pressure;BME280_temperature;BME280_humidity;BME280_pressure;Samples;Min_cycle;Max_cycle;Signal;HPM_P1;HPM_P2
2023/05/05 00:02:06;;;;;;;5.70;4.77;;;18.00;47.90;;;;;;5018564;28;21425;-88
2023/05/05 00:04:33;;;;;;;7.20;4.80;;;18.00;48.10;;;;;;5017591;28;20453;-88
2023/05/05 00:07:00;;;;;;;6.17;5.07;;;18.00;48.10;;;;;;5036280;28;20484;-89
2023/05/05 00:09:27;;;;;;;5.83;4.50;;;17.90;48.00;;;;;;5012819;28;20465;-87
2023/05/05 00:11:54;;;;;;;9.43;4.70;;;17.90;47.80;;;;;;5028085;28;20453;-87
2023/05/05 00:14:22;;;;;;;6.40;4.63;;;17.90;48.00;;;;;;5000623;28;20583;-88
2023/05/05 00:16:49;;;;;;;6.83;4.90;;;17.90;48.00;;;;;;5009762;28;20552;-88
2023/05/05 00:19:16;;;;;;;6.83;4.77;;;17.80;47.90;;;;;;5009850;28;20441;-88
2023/05/05 00:21:43;;;;;;;8.70;4.90;;;17.80;48.20;;;;;;5006187;28;20448;-90
2023/05/05 00:24:10;;;;;;;8.20;4.93;;;17.80;48.10;;;;;;5012868;28;20524;-89
2023/05/05 00:26:37;;;;;;;7.03;5.27;;;17.80;48.60;;;;;;5042136;28;20460;-88
2023/05/05 00:29:04;;;;;;;8.30;4.77;;;17.40;48.20;;;;;;5029471;28;20445;-87
2023/05/05 00:31:32;;;;;;;9.47;5.23;;;17.20;49.90;;;;;;5042182;28;20954;-88
2023/05/05 00:33:59;;;;;;;7.20;5.77;;;17.30;49.40;;;;;;5010676;28;20469;-88
2023/05/05 00:36:27;;;;;;;6.87;5.47;;;17.30;49.80;;;;;;5011368;28;20533;-88
2023/05/05 00:38:54;;;;;;;5.70;4.83;;;17.30;50.00;;;;;;5020540;28;20449;-88
2023/05/05 00:41:21;;;;;;;5.20;4.47;;;17.40;49.80;;;;;;5013540;28;20509;-89
2023/05/05 00:43:48;;;;;;;8.63;4.70;;;17.40;50.50;;;;;;5019153;28;20918;-89
2023/05/05 00:46:23;;;;;;;4.70;4.30;;;17.40;50.50;;;;;;5020489;28;20887;-89
2023/05/05 00:48:52;;;;;;;7.10;5.40;;;17.40;50.80;;;;;;5003273;28;20507;-87
2023/05/05 00:51:21;;;;;;;8.17;5.57;;;17.30;51.40;;;;;;5012270;28;20465;-88
2023/05/05 00:53:49;;;;;;;7.07;5.13;;;17.40;51.30;;;;;;5008741;28;20521;-88
2023/05/05 00:56:18;;;;;;;6.13;4.50;;;17.40;51.10;;;;;;5037543;28;20482;-87
2023/05/05 00:58:45;;;;;;;11.00;5.57;;;17.50;51.20;;;;;;5025678;28;21253;-88
2023/05/05 01:01:14;;;;;;;4.77;4.33;;;17.40;51.20;;;;;;5022046;28;20452;-87
2023/05/05 01:03:41;;;;;;;6.83;4.70;;;17.40;51.60;;;;;;5023566;28;20453;-89
2023/05/05 01:06:30;;;;;;;10.63;5.60;;;17.40;51.40;;;;;;5011727;28;20453;-90
2023/05/05 01:09:04;;;;;;;5.53;4.20;;;17.30;50.60;;;;;;5011851;28;20576;-87
2023/05/05 01:11:41;;;;;;;7.07;5.00;;;17.20;50.40;;;;;;5024353;28;20432;-89
2023/05/05 01:14:13;;;;;;;10.70;5.60;;;17.30;50.70;;;;;;5034443;28;20444;-88
2023/05/05 01:16:49;;;;;;;8.20;5.67;;;17.40;50.90;;;;;;5023343;28;20561;-89
2023/05/05 01:19:49;;;;;;;8.23;4.70;;;17.40;50.70;;;;;;5013630;28;20444;-90
2023/05/05 01:22:22;;;;;;;8.83;5.30;;;17.40;50.30;;;;;;5017602;28;20486;-88
2023/05/05 01:25:03;;;;;;;7.33;5.00;;;17.40;50.30;;;;;;5014212;28;20856;-89
2023/05/05 01:27:50;;;;;;;9.90;5.30;;;17.40;50.40;;;;;;5013262;28;20457;-88
2023/05/05 01:30:46;;;;;;;5.87;4.63;;;17.40;51.00;;;;;;5031722;28;20465;-90
2023/05/05 01:33:20;;;;;;;7.30;5.13;;;17.40;50.80;;;;;;5040781;28;20808;-89
2023/05/05 01:35:53;;;;;;;6.43;4.90;;;17.40;50.70;;;;;;5003033;28;20469;-90
2023/05/05 01:38:24;;;;;;;5.40;4.50;;;17.40;50.80;;;;;;5028063;28;20472;-89
2023/05/05 01:40:57;;;;;;;11.00;5.10;;;17.40;51.10;;;;;;5018568;28;20436;-89
2023/05/05 01:43:29;;;;;;;8.27;4.90;;;17.30;51.20;;;;;;5032201;28;20438;-88
2023/05/05 01:45:58;;;;;;;5.53;4.77;;;17.30;51.60;;;;;;5017541;28;20460;-88
2023/05/05 01:48:28;;;;;;;8.00;5.37;;;17.30;51.60;;;;;;5053491;28;20484;-87
2023/05/05 01:50:56;;;;;;;10.10;4.23;;;17.30;51.70;;;;;;5019426;28;20505;-88
2023/05/05 01:53:26;;;;;;;6.23;5.00;;;17.30;51.80;;;;;;5027439;28;20503;-89
2023/05/05 01:55:56;;;;;;;6.50;5.13;;;17.30;52.00;;;;;;5031156;28;20448;-88
2023/05/05 01:58:25;;;;;;;7.33;5.53;;;17.30;52.20;;;;;;5025003;28;20473;-88
2023/05/05 02:00:54;;;;;;;7.40;5.07;;;17.30;52.10;;;;;;5015305;28;20964;-89
2023/05/05 02:03:24;;;;;;;8.13;5.57;;;17.30;52.20;;;;;;5010784;28;20529;-88
2023/05/05 02:05:54;;;;;;;8.23;5.53;;;17.30;53.20;;;;;;5023710;28;20452;-88
2023/05/05 02:08:22;;;;;;;5.90;5.20;;;17.30;53.10;;;;;;5020956;28;20468;-88
2023/05/05 02:10:52;;;;;;;7.47;5.27;;;17.30;52.40;;;;;;5023353;28;20466;-89
2023/05/05 02:13:21;;;;;;;9.50;4.90;;;17.30;52.40;;;;;;5025605;28;20466;-88
2023/05/05 02:15:49;;;;;;;6.60;4.90;;;17.30;52.20;;;;;;5030344;28;20982;-90
2023/05/05 02:18:17;;;;;;;6.27;5.50;;;17.30;52.10;;;;;;5031565;28;20480;-89
2023/05/05 02:20:47;;;;;;;8.03;4.83;;;17.30;52.30;;;;;;5037654;28;20445;-90
2023/05/05 02:23:15;;;;;;;5.70;5.13;;;17.30;52.40;;;;;;5026637;28;20470;-88
2023/05/05 02:25:45;;;;;;;7.53;5.53;;;17.20;52.40;;;;;;5019970;28;20453;-88
2023/05/05 02:28:20;;;;;;;5.30;4.80;;;17.20;52.30;;;;;;5041519;28;20469;-88
2023/05/05 02:30:51;;;;;;;7.50;5.17;;;17.10;52.70;;;;;;5038969;28;20472;-88
2023/05/05 02:33:20;;;;;;;6.17;5.27;;;17.00;53.20;;;;;;5033894;28;20451;-89
2023/05/05 02:35:51;;;;;;;9.77;5.57;;;16.90;53.30;;;;;;5032049;28;20452;-88
2023/05/05 02:38:28;;;;;;;5.93;5.27;;;16.90;53.50;;;;;;5031462;28;20477;-89
2023/05/05 02:41:01;;;;;;;9.03;5.27;;;16.90;53.10;;;;;;5027631;28;20956;-88
2023/05/05 02:43:31;;;;;;;8.67;5.40;;;16.90;52.90;;;;;;5032012;28;20440;-89
2023/05/05 02:45:59;;;;;;;10.53;5.77;;;17.00;52.80;;;;;;5046039;28;20455;-89
2023/05/05 02:48:28;;;;;;;8.00;5.47;;;17.00;52.70;;;;;;5038871;28;20472;-89
2023/05/05 02:50:56;;;;;;;6.20;4.53;;;16.90;52.60;;;;;;5048164;28;20463;-89
2023/05/05 02:53:34;;;;;;;13.93;5.20;;;17.00;52.50;;;;;;5038789;28;20961;-89
2023/05/05 02:56:08;;;;;;;9.30;6.07;;;16.90;52.40;;;;;;5045881;28;20516;-88
2023/05/05 02:58:51;;;;;;;6.43;5.80;;;16.90;52.20;;;;;;5013535;28;20893;-90
2023/05/05 03:01:27;;;;;;;10.00;6.30;;;16.80;51.60;;;;;;5007568;28;20444;-89
2023/05/05 03:04:03;;;;;;;5.90;5.30;;;16.80;51.40;;;;;;5035967;28;20831;-90
2023/05/05 03:06:39;;;;;;;6.53;4.90;;;16.70;51.40;;;;;;5029263;28;20461;-87
2023/05/05 03:09:12;;;;;;;6.97;5.47;;;16.50;51.90;;;;;;5027992;28;20828;-88
2023/05/05 03:11:47;;;;;;;8.20;5.73;;;16.50;52.10;;;;;;5028074;28;20469;-88
2023/05/05 03:14:18;;;;;;;10.43;5.43;;;16.60;52.00;;;;;;5043166;28;20489;-88
2023/05/05 03:16:47;;;;;;;4.73;4.20;;;16.60;52.00;;;;;;5004410;28;20485;-89
2023/05/05 03:19:18;;;;;;;7.33;5.17;;;16.60;51.80;;;;;;5024036;28;20857;-88
2023/05/05 03:21:47;;;;;;;6.50;4.77;;;16.60;51.60;;;;;;5029726;28;20973;-89
2023/05/05 03:24:17;;;;;;;10.37;5.60;;;16.50;51.80;;;;;;5034531;28;20442;-89
2023/05/05 03:26:50;;;;;;;5.80;4.97;;;16.50;51.70;;;;;;5028093;28;20461;-89
2023/05/05 03:29:21;;;;;;;6.83;5.17;;;16.50;51.60;;;;;;5021586;28;20975;-88
2023/05/05 03:31:48;;;;;;;6.47;5.40;;;16.40;51.70;;;;;;5019877;28;20492;-89
2023/05/05 03:34:15;;;;;;;7.77;5.37;;;16.40;51.80;;;;;;5031326;28;20448;-90
2023/05/05 03:36:46;;;;;;;8.23;5.30;;;16.30;51.90;;;;;;5036049;28;21109;-87
2023/05/05 03:39:17;;;;;;;8.20;6.40;;;16.20;52.20;;;;;;5038463;28;20507;-88
2023/05/05 03:41:44;;;;;;;7.60;5.50;;;16.10;52.60;;;;;;5005441;28;20541;-89
2023/05/05 03:44:12;;;;;;;5.97;4.80;;;16.10;52.70;;;;;;5031419;28;20510;-88
2023/05/05 03:46:39;;;;;;;7.27;6.03;;;16.00;54.00;;;;;;5021937;28;20488;-88
2023/05/05 03:49:10;;;;;;;12.00;5.33;;;16.00;53.80;;;;;;5026431;28;20481;-89
2023/05/05 03:51:39;;;;;;;8.00;5.43;;;16.00;53.30;;;;;;5052885;28;21014;-87
2023/05/05 03:54:07;;;;;;;6.03;4.73;;;16.00;53.80;;;;;;5034683;28;20472;-87
2023/05/05 03:56:36;;;;;;;7.20;5.47;;;15.90;54.40;;;;;;5036989;28;21057;-88
2023/05/05 03:59:03;;;;;;;6.77;5.50;;;16.00;53.90;;;;;;5043816;28;20536;-89
2023/05/05 04:01:30;;;;;;;6.67;5.50;;;15.60;54.40;;;;;;5024819;28;20532;-89
2023/05/05 04:03:58;;;;;;;8.10;6.03;;;15.30;55.00;;;;;;5043074;28;20536;-89
2023/05/05 04:06:25;;;;;;;6.60;5.90;;;15.30;54.60;;;;;;5026702;28;20460;-90
2023/05/05 04:08:52;;;;;;;9.40;5.53;;;15.20;54.60;;;;;;5020291;28;20963;-88
2023/05/05 04:11:20;;;;;;;9.10;6.87;;;14.80;55.70;;;;;;5030936;28;20574;-89
2023/05/05 04:13:49;;;;;;;7.10;5.60;;;14.80;56.00;;;;;;5015070;28;20511;-88
2023/05/05 04:16:17;;;;;;;7.17;5.50;;;15.00;55.80;;;;;;5019299;28;20529;-87
2023/05/05 04:18:44;;;;;;;8.00;5.00;;;15.10;55.50;;;;;;5007920;28;20456;-89
2023/05/05 04:21:11;;;;;;;9.40;5.87;;;15.00;55.40;;;;;;5025863;28;20476;-89
2023/05/05 04:23:38;;;;;;;6.00;5.00;;;15.10;55.30;;;;;;5038351;28;20474;-89
2023/05/05 04:26:06;;;;;;;5.97;5.27;;;15.30;54.70;;;;;;5023891;28;20442;-87
2023/05/05 04:28:33;;;;;;;6.43;5.70;;;15.40;54.60;;;;;;5021587;28;20468;-88
2023/05/05 04:31:03;;;;;;;11.63;6.40;;;15.20;54.60;;;;;;5019288;28;20457;-86
2023/05/05 04:33:32;;;;;;;7.67;5.53;;;15.00;55.00;;;;;;5034144;28;20477;-87
2023/05/05 04:35:59;;;;;;;8.30;6.20;;;15.10;55.00;;;;;;5028874;28;20574;-88
2023/05/05 04:38:27;;;;;;;6.67;5.50;;;15.10;54.90;;;;;;5012990;28;20885;-90
2023/05/05 04:40:55;;;;;;;9.83;6.67;;;15.30;54.80;;;;;;5020923;28;20511;-88
2023/05/05 04:43:22;;;;;;;6.90;6.03;;;15.40;54.80;;;;;;5024669;28;20602;-90
2023/05/05 04:45:53;;;;;;;8.67;6.10;;;15.50;54.20;;;;;;5009849;28;20653;-89
2023/05/05 04:48:23;;;;;;;8.50;6.43;;;15.60;53.80;;;;;;5023782;28;20582;-86
2023/05/05 04:50:50;;;;;;;9.87;7.03;;;15.80;54.00;;;;;;5011891;28;20476;-87
2023/05/05 04:53:18;;;;;;;8.37;6.50;;;15.90;54.20;;;;;;5012290;28;20451;-87
2023/05/05 04:55:45;;;;;;;8.80;5.40;;;16.00;54.40;;;;;;5023062;28;21200;-87
2023/05/05 04:58:12;;;;;;;6.67;5.27;;;16.00;54.40;;;;;;5035296;28;20461;-86
2023/05/05 05:00:39;;;;;;;6.40;5.40;;;16.00;54.70;;;;;;5048019;28;20951;-87
2023/05/05 05:03:06;;;;;;;8.67;6.07;;;16.00;54.80;;;;;;5016186;28;20460;-87
2023/05/05 05:05:35;;;;;;;6.10;5.37;;;16.00;54.50;;;;;;5048826;28;21115;-87
2023/05/05 05:08:02;;;;;;;6.23;5.07;;;16.10;54.90;;;;;;4999870;28;20556;-87
2023/05/05 05:10:29;;;;;;;8.63;5.40;;;16.10;54.70;;;;;;5019586;28;20547;-89
2023/05/05 05:12:56;;;;;;;7.43;5.50;;;16.00;54.80;;;;;;5037759;28;20469;-88
2023/05/05 05:15:23;;;;;;;6.33;5.63;;;16.00;55.10;;;;;;5031875;28;20449;-88
2023/05/05 05:17:50;;;;;;;12.00;5.60;;;16.00;55.30;;;;;;5037120;28;22927;-89
2023/05/05 05:20:17;;;;;;;7.63;5.50;;;16.10;55.40;;;;;;5024965;28;21022;-88
2023/05/05 05:22:46;;;;;;;9.10;6.17;;;16.20;55.20;;;;;;5002919;28;20511;-87
2023/05/05 05:25:17;;;;;;;8.17;4.90;;;16.30;55.20;;;;;;5046821;28;20499;-88
2023/05/05 05:27:44;;;;;;;7.90;5.40;;;16.30;55.50;;;;;;5019402;28;20473;-88
2023/05/05 05:30:12;;;;;;;7.00;5.70;;;16.20;55.50;;;;;;5019464;28;20452;-87
2023/05/05 05:32:39;;;;;;;8.27;6.27;;;15.90;56.20;;;;;;5022392;28;20943;-87
2023/05/05 05:35:06;;;;;;;7.67;5.60;;;16.00;56.10;;;;;;5033027;28;20458;-88
2023/05/05 05:37:34;;;;;;;10.63;6.40;;;15.90;56.10;;;;;;5001334;28;20472;-87
2023/05/05 05:40:05;;;;;;;7.40;5.80;;;16.00;56.20;;;;;;5014637;28;20624;-88
2023/05/05 05:42:33;;;;;;;10.13;6.77;;;16.10;55.90;;;;;;5024837;28;20440;-87
2023/05/05 05:45:01;;;;;;;9.30;6.13;;;16.10;56.30;;;;;;5038690;28;21812;-87
2023/05/05 05:47:28;;;;;;;10.70;7.10;;;16.20;56.30;;;;;;5020816;28;20500;-87
2023/05/05 05:49:56;;;;;;;14.70;6.70;;;16.40;55.90;;;;;;5041399;28;20988;-88
2023/05/05 05:52:23;;;;;;;10.53;6.00;;;16.40;55.40;;;;;;5033416;28;20470;-89
2023/05/05 05:54:50;;;;;;;8.33;5.90;;;16.20;56.00;;;;;;5028077;28;20586;-88
2023/05/05 05:57:21;;;;;;;8.47;6.33;;;16.00;56.20;;;;;;5035245;28;20463;-88
2023/05/05 05:59:48;;;;;;;11.47;6.17;;;15.70;56.30;;;;;;5028254;28;20820;-89
2023/05/05 06:02:15;;;;;;;11.80;6.70;;;15.70;56.90;;;;;;5027563;28;20442;-87
2023/05/05 06:04:43;;;;;;;7.87;6.27;;;15.60;56.70;;;;;;5014687;28;20444;-89
2023/05/05 06:07:10;;;;;;;10.97;6.00;;;15.70;56.80;;;;;;5051242;28;20841;-89
2023/05/05 06:09:37;;;;;;;9.07;5.93;;;16.10;56.40;;;;;;5039643;28;20992;-87
2023/05/05 06:12:04;;;;;;;9.47;6.57;;;16.00;56.30;;;;;;5024965;28;21040;-88
2023/05/05 06:14:33;;;;;;;8.43;6.17;;;15.90;56.60;;;;;;5046450;28;20526;-89
2023/05/05 06:17:00;;;;;;;9.27;6.00;;;15.80;56.90;;;;;;5025051;28;20496;-88
2023/05/05 06:19:28;;;;;;;9.63;6.27;;;16.00;56.60;;;;;;5026324;28;20520;-88
2023/05/05 06:21:55;;;;;;;7.37;6.03;;;16.30;56.30;;;;;;5040308;28;20445;-88
2023/05/05 06:24:23;;;;;;;8.00;6.20;;;16.50;55.70;;;;;;5027924;28;20844;-89
2023/05/05 06:26:50;;;;;;;12.00;6.57;;;16.60;55.30;;;;;;5025089;28;20473;-86
2023/05/05 06:29:17;;;;;;;7.40;6.20;;;16.70;55.10;;;;;;5034926;28;20450;-86
2023/05/05 06:31:45;;;;;;;10.43;6.03;;;16.50;55.10;;;;;;5032747;28;20487;-87
2023/05/05 06:34:12;;;;;;;8.83;5.63;;;16.50;55.50;;;;;;5002756;28;20438;-86
2023/05/05 06:36:39;;;;;;;6.00;5.40;;;16.50;55.20;;;;;;5043187;28;20563;-86
2023/05/05 06:39:06;;;;;;;10.90;6.70;;;16.50;55.10;;;;;;5003180;28;20444;-86
2023/05/05 06:41:33;;;;;;;10.10;6.93;;;16.70;54.60;;;;;;5022210;28;20441;-85
2023/05/05 06:44:00;;;;;;;9.00;5.63;;;16.90;54.20;;;;;;5035594;28;20462;-86
2023/05/05 06:46:27;;;;;;;8.93;6.53;;;17.10;54.20;;;;;;5019574;28;20452;-87
2023/05/05 06:48:56;;;;;;;8.30;6.20;;;17.20;54.10;;;;;;5019617;28;20442;-86
2023/05/05 06:51:23;;;;;;;9.17;5.80;;;17.50;54.00;;;;;;5020563;28;20468;-87
2023/05/05 06:53:50;;;;;;;8.87;6.80;;;17.70;53.40;;;;;;5050655;28;20457;-87
2023/05/05 06:56:17;;;;;;;7.60;6.20;;;17.80;52.80;;;;;;5034217;28;20546;-86
2023/05/05 06:58:45;;;;;;;7.80;4.93;;;17.80;52.20;;;;;;5007682;28;20453;-87
2023/05/05 07:01:12;;;;;;;12.67;5.50;;;18.20;52.40;;;;;;5025869;28;20457;-86
2023/05/05 07:03:39;;;;;;;9.40;5.43;;;18.50;52.10;;;;;;5050660;28;20456;-87
2023/05/05 07:06:07;;;;;;;6.20;5.27;;;18.70;51.70;;;;;;5026062;28;20450;-87
2023/05/05 07:08:34;;;;;;;9.50;5.60;;;18.90;51.20;;;;;;5019718;28;20509;-87
2023/05/05 07:11:01;;;;;;;10.23;6.70;;;18.80;50.20;;;;;;5021100;28;20473;-87
2023/05/05 07:13:28;;;;;;;5.93;4.83;;;18.50;50.80;;;;;;5002190;28;20543;-87
2023/05/05 07:15:55;;;;;;;6.23;5.27;;;18.20;51.50;;;;;;5041573;28;20449;-87
2023/05/05 07:18:22;;;;;;;7.40;5.80;;;18.20;51.70;;;;;;5018883;28;20504;-86
2023/05/05 07:20:49;;;;;;;7.60;6.10;;;18.30;51.40;;;;;;5007324;28;20987;-87
2023/05/05 07:23:18;;;;;;;7.23;5.30;;;18.70;49.20;;;;;;5035401;28;20526;-87
2023/05/05 07:25:45;;;;;;;8.57;5.47;;;18.60;48.50;;;;;;5019002;28;20446;-87
2023/05/05 07:28:12;;;;;;;7.80;5.20;;;18.60;49.40;;;;;;5022661;28;21214;-87
2023/05/05 07:30:38;;;;;;;8.40;5.20;;;18.50;50.10;;;;;;5035919;28;20472;-86
2023/05/05 07:33:05;;;;;;;11.70;5.93;;;18.80;49.70;;;;;;5024346;28;20464;-87
2023/05/05 07:35:32;;;;;;;7.07;5.83;;;19.10;49.70;;;;;;5016703;28;20450;-87
2023/05/05 07:37:59;;;;;;;10.60;6.63;;;19.40;49.40;;;;;;5019849;28;20473;-87
2023/05/05 07:40:27;;;;;;;7.60;5.37;;;19.40;49.20;;;;;;5035727;28;20457;-87
2023/05/05 07:42:55;;;;;;;10.20;6.30;;;19.30;49.50;;;;;;5016616;28;20454;-87
2023/05/05 07:45:22;;;;;;;14.20;5.90;;;19.30;49.40;;;;;;5029822;28;20485;-87
2023/05/05 07:47:49;;;;;;;8.67;5.20;;;19.50;49.10;;;;;;4998295;28;20468;-87
2023/05/05 07:50:16;;;;;;;7.47;6.00;;;19.60;49.10;;;;;;5036768;28;20448;-88
2023/05/05 07:52:43;;;;;;;7.57;5.50;;;19.70;49.10;;;;;;5015355;28;20469;-87
2023/05/05 07:55:10;;;;;;;12.00;5.50;;;19.80;48.70;;;;;;5027100;28;20450;-87
2023/05/05 07:57:38;;;;;;;7.97;5.60;;;19.90;48.30;;;;;;5038966;28;20473;-87
2023/05/05 08:00:06;;;;;;;9.27;5.83;;;20.00;48.30;;;;;;5008216;28;20446;-88
2023/05/05 08:02:39;;;;;;;8.73;5.40;;;20.00;48.00;;;;;;5029243;28;20463;-87
2023/05/05 08:05:07;;;;;;;8.63;5.50;;;20.10;47.70;;;;;;5019068;28;22110;-87
2023/05/05 08:07:35;;;;;;;7.60;5.00;;;20.30;47.90;;;;;;5026511;28;20562;-87
2023/05/05 08:10:02;;;;;;;6.53;5.70;;;20.30;47.90;;;;;;5033432;28;20476;-87
2023/05/05 08:12:29;;;;;;;6.13;5.53;;;20.50;47.70;;;;;;5027575;28;20476;-87
2023/05/05 08:14:57;;;;;;;8.30;5.10;;;20.70;47.50;;;;;;5030754;28;20973;-88
2023/05/05 08:17:25;;;;;;;6.80;5.13;;;20.70;47.80;;;;;;5036149;28;20474;-86
2023/05/05 08:19:53;;;;;;;8.07;5.43;;;21.00;47.90;;;;;;5030375;28;20903;-87
2023/05/05 08:22:21;;;;;;;7.50;5.10;;;21.30;47.10;;;;;;5027493;28;20455;-86
2023/05/05 08:24:48;;;;;;;7.57;5.70;;;21.30;46.90;;;;;;5029966;28;20479;-87
2023/05/05 08:27:14;;;;;;;8.07;5.03;;;21.50;46.80;;;;;;5034423;28;20464;-87
2023/05/05 08:29:41;;;;;;;10.97;5.17;;;21.60;46.90;;;;;;5032305;28;20492;-86
2023/05/05 08:32:10;;;;;;;10.07;5.23;;;21.80;46.80;;;;;;5019526;28;20479;-86
2023/05/05 08:34:37;;;;;;;6.43;5.07;;;22.00;46.30;;;;;;5005788;28;20449;-86
2023/05/05 08:37:03;;;;;;;9.50;5.80;;;22.10;45.60;;;;;;5015062;28;20461;-87
2023/05/05 08:39:30;;;;;;;7.07;5.43;;;22.00;45.80;;;;;;5020540;28;20445;-86
2023/05/05 08:41:57;;;;;;;5.20;4.70;;;22.00;45.80;;;;;;5019951;28;20445;-86
2023/05/05 08:44:25;;;;;;;5.47;4.83;;;21.80;46.60;;;;;;5018343;28;20985;-87
2023/05/05 08:46:53;;;;;;;7.83;6.47;;;21.70;46.30;;;;;;5019215;28;20473;-87
2023/05/05 08:49:22;;;;;;;11.10;5.57;;;21.70;46.40;;;;;;5006372;28;20450;-87
2023/05/05 08:51:52;;;;;;;5.23;4.73;;;21.90;46.60;;;;;;5005829;28;20456;-87
2023/05/05 08:54:23;;;;;;;7.90;4.67;;;22.00;46.50;;;;;;5025306;28;20808;-86
2023/05/05 08:56:51;;;;;;;9.20;5.70;;;22.00;46.70;;;;;;5048927;28;20465;-86
2023/05/05 08:59:23;;;;;;;6.87;5.53;;;22.10;46.20;;;;;;5022407;28;20468;-85
2023/05/05 09:01:51;;;;;;;9.27;5.37;;;22.10;45.70;;;;;;5032880;28;20495;-87
2023/05/05 09:04:18;;;;;;;6.33;4.73;;;22.10;45.70;;;;;;5039116;28;20444;-87
2023/05/05 09:06:47;;;;;;;5.90;5.30;;;22.30;46.00;;;;;;5015339;28;20523;-87
2023/05/05 09:09:14;;;;;;;6.13;5.43;;;22.40;45.50;;;;;;5001122;28;20526;-87
2023/05/05 09:11:42;;;;;;;7.33;4.80;;;22.30;46.10;;;;;;5008626;28;20539;-88
2023/05/05 09:14:09;;;;;;;6.10;4.67;;;22.60;45.90;;;;;;5005547;28;20450;-87
2023/05/05 09:16:39;;;;;;;6.33;4.67;;;22.70;44.90;;;;;;5009035;28;20469;-88
2023/05/05 09:19:07;;;;;;;6.77;4.60;;;22.90;45.30;;;;;;5027306;28;20511;-87
2023/05/05 09:21:34;;;;;;;8.93;5.57;;;23.10;45.10;;;;;;5038775;28;20461;-87
2023/05/05 09:24:06;;;;;;;6.47;4.77;;;23.40;45.70;;;;;;5017312;28;20449;-87
2023/05/05 09:26:34;;;;;;;4.60;4.17;;;23.70;44.50;;;;;;5015290;28;21189;-87
2023/05/05 09:29:02;;;;;;;5.27;4.60;;;23.40;43.90;;;;;;5013061;28;20449;-87
2023/05/05 09:31:31;;;;;;;9.97;4.83;;;23.20;44.40;;;;;;5020979;28;20441;-87
2023/05/05 09:33:59;;;;;;;6.00;4.77;;;23.40;45.00;;;;;;5023496;28;22146;-87
2023/05/05 09:36:46;;;;;;;4.67;4.27;;;23.90;44.30;;;;;;5022967;28;20548;-86
2023/05/05 09:39:16;;;;;;;9.40;4.60;;;24.10;44.30;;;;;;5022803;28;20802;-87
2023/05/05 09:41:43;;;;;;;8.37;4.30;;;24.40;43.70;;;;;;5008536;28;20459;-87
2023/05/05 09:44:11;;;;;;;6.07;4.57;;;24.50;43.50;;;;;;5019201;28;21280;-86
2023/05/05 09:46:38;;;;;;;7.03;4.63;;;24.70;44.00;;;;;;5004360;28;20561;-87
2023/05/05 09:49:14;;;;;;;6.33;5.00;;;24.70;43.20;;;;;;5007611;28;20532;-87
2023/05/05 09:51:41;;;;;;;12.77;4.73;;;24.90;43.80;;;;;;5035207;28;20461;-87
2023/05/05 09:54:08;;;;;;;7.80;4.50;;;25.40;43.50;;;;;;5008412;28;20461;-87
2023/05/05 09:56:40;;;;;;;4.63;4.23;;;25.60;42.50;;;;;;5034127;28;20457;-86
2023/05/05 09:59:11;;;;;;;5.47;4.50;;;25.90;42.50;;;;;;5037848;28;20444;-87
2023/05/05 10:01:38;;;;;;;5.10;4.60;;;25.80;42.80;;;;;;5055233;28;20453;-87
2023/05/05 10:04:06;;;;;;;4.40;3.63;;;26.10;42.50;;;;;;5001872;28;20445;-86
2023/05/05 10:06:41;;;;;;;5.20;4.67;;;26.40;41.10;;;;;;5034272;28;20453;-85
2023/05/05 10:09:07;;;;;;;5.30;4.27;;;26.40;41.80;;;;;;5012071;28;20867;-88
2023/05/05 10:11:35;;;;;;;4.40;3.90;;;26.30;41.90;;;;;;5030287;28;20455;-87
2023/05/05 10:14:07;;;;;;;3.90;3.50;;;26.30;42.30;;;;;;5040382;28;20481;-88
2023/05/05 10:16:35;;;;;;;3.90;3.50;;;26.30;42.20;;;;;;5009113;28;20471;-88
2023/05/05 10:19:03;;;;;;;3.70;3.30;;;26.60;41.70;;;;;;5040728;28;20543;-87
2023/05/05 10:21:36;;;;;;;3.70;3.40;;;26.90;40.20;;;;;;5010900;28;20935;-87
2023/05/05 10:24:11;;;;;;;3.80;3.50;;;27.10;40.40;;;;;;5024057;28;20461;-87
2023/05/05 10:26:42;;;;;;;6.10;3.70;;;27.40;40.40;;;;;;5008918;28;21032;-88
2023/05/05 10:29:17;;;;;;;3.90;3.60;;;27.30;39.70;;;;;;5013068;28;20448;-88
2023/05/05 10:31:47;;;;;;;3.57;2.83;;;27.20;40.40;;;;;;5018278;28;20437;-87
2023/05/05 10:34:21;;;;;;;2.93;2.73;;;27.10;39.10;;;;;;5037970;28;20478;-88
2023/05/05 10:36:49;;;;;;;3.27;3.07;;;27.10;38.50;;;;;;5011910;28;20544;-87
2023/05/05 10:39:18;;;;;;;5.20;3.83;;;27.10;39.20;;;;;;5006764;28;20449;-87
2023/05/05 10:41:46;;;;;;;6.20;3.50;;;27.10;41.10;;;;;;5009446;28;20442;-87
2023/05/05 10:44:16;;;;;;;3.77;3.47;;;27.10;39.80;;;;;;5013177;28;20810;-88
2023/05/05 10:46:44;;;;;;;4.70;3.87;;;26.90;39.70;;;;;;5035359;28;20464;-87
2023/05/05 10:49:19;;;;;;;3.53;3.27;;;26.90;41.00;;;;;;5010871;28;20966;-88
2023/05/05 10:51:53;;;;;;;3.73;3.43;;;27.00;41.90;;;;;;5025865;28;20463;-89
2023/05/05 10:54:28;;;;;;;4.10;3.80;;;26.50;41.20;;;;;;5015354;28;20493;-88
2023/05/05 10:56:55;;;;;;;4.07;3.67;;;26.60;42.70;;;;;;5009946;28;20480;-88
2023/05/05 10:59:43;;;;;;;4.70;3.10;;;27.00;41.40;;;;;;5021747;28;20465;-88
2023/05/05 11:02:25;;;;;;;3.23;2.93;;;27.50;40.80;;;;;;5024055;28;20441;-88
2023/05/05 11:05:07;;;;;;;4.00;3.23;;;27.40;39.60;;;;;;5019357;28;20847;-87
2023/05/05 11:07:34;;;;;;;4.00;3.70;;;27.70;41.40;;;;;;5025923;28;20480;-88
2023/05/05 11:10:02;;;;;;;3.53;3.20;;;27.70;39.90;;;;;;5024597;28;20457;-88
2023/05/05 11:12:30;;;;;;;3.93;3.53;;;27.90;39.70;;;;;;5022293;28;20450;-87
2023/05/05 11:15:39;;;;;;;3.60;3.30;;;28.10;38.80;;;;;;5008564;28;20852;-88
2023/05/05 11:18:06;;;;;;;4.30;3.90;;;28.10;39.50;;;;;;5024917;28;20464;-88
2023/05/05 11:21:03;;;;;;;3.70;3.40;;;28.10;38.70;;;;;;5009084;28;20453;-88
2023/05/05 11:23:31;;;;;;;5.40;3.00;;;27.90;38.80;;;;;;5029288;28;20445;-88
2023/05/05 11:25:58;;;;;;;7.03;3.57;;;27.60;39.40;;;;;;5036295;28;20476;-86
2023/05/05 11:28:28;;;;;;;3.33;2.80;;;27.70;39.30;;;;;;5041139;28;20982;-87
2023/05/05 11:31:19;;;;;;;3.00;2.70;;;27.60;38.60;;;;;;5022780;28;20503;-88
2023/05/05 11:33:46;;;;;;;3.00;2.80;;;27.80;37.20;;;;;;5021330;28;20484;-88
2023/05/05 11:36:14;;;;;;;2.53;2.33;;;28.00;38.10;;;;;;5027271;28;20939;-88
2023/05/05 11:39:02;;;;;;;2.60;2.40;;;28.00;36.80;;;;;;5024165;28;20476;-88
2023/05/05 11:42:02;;;;;;;1.90;1.80;;;28.00;38.00;;;;;;5039143;28;21061;-88
2023/05/05 11:44:33;;;;;;;2.40;1.50;;;28.00;36.40;;;;;;5029821;28;20845;-87
2023/05/05 11:47:40;;;;;;;2.10;1.90;;;28.00;34.30;;;;;;5013593;28;20474;-88
2023/05/05 11:50:21;;;;;;;1.60;1.50;;;27.90;34.40;;;;;;5043995;28;20441;-88
2023/05/05 11:52:49;;;;;;;1.50;1.40;;;27.90;34.30;;;;;;5012891;28;20492;-88
2023/05/05 11:55:22;;;;;;;2.10;1.60;;;27.70;34.80;;;;;;5011508;28;20452;-88
2023/05/05 11:57:49;;;;;;;1.80;1.50;;;27.60;33.70;;;;;;5009698;28;20524;-87
2023/05/05 12:00:17;;;;;;;2.63;1.30;;;27.60;33.90;;;;;;5029447;28;20456;-88
2023/05/05 12:02:44;;;;;;;1.40;1.30;;;27.30;32.50;;;;;;5008637;28;20440;-87
2023/05/05 12:05:18;;;;;;;3.20;1.80;;;27.30;32.70;;;;;;5037640;28;20504;-87
2023/05/05 12:07:46;;;;;;;1.67;1.30;;;27.50;32.70;;;;;;5023425;28;20480;-87
2023/05/05 12:10:13;;;;;;;1.37;1.27;;;27.80;32.80;;;;;;5028856;28;20451;-87
2023/05/05 12:12:41;;;;;;;1.23;1.13;;;27.80;31.30;;;;;;5008988;28;20811;-88
2023/05/05 12:15:09;;;;;;;1.10;1.00;;;27.80;30.60;;;;;;5023545;28;20446;-88
2023/05/05 12:17:38;;;;;;;5.73;1.17;;;28.00;29.90;;;;;;5018873;28;20509;-87
2023/05/05 12:20:07;;;;;;;2.17;1.10;;;28.10;31.40;;;;;;5009446;28;20477;-88
2023/05/05 12:22:34;;;;;;;1.30;1.20;;;28.40;30.80;;;;;;5010586;28;20835;-88
2023/05/05 12:25:04;;;;;;;1.43;1.13;;;28.70;30.20;;;;;;5024269;28;20457;-88
2023/05/05 12:27:31;;;;;;;1.97;1.30;;;29.00;29.60;;;;;;5021209;28;20461;-87
2023/05/05 12:30:12;;;;;;;1.27;0.93;;;29.30;30.00;;;;;;5026117;28;20453;-88
2023/05/05 12:32:40;;;;;;;4.80;1.30;;;29.50;28.80;;;;;;5011989;28;20922;-88
2023/05/05 12:35:08;;;;;;;1.67;1.10;;;29.40;27.80;;;;;;5028447;28;20473;-88
2023/05/05 12:37:36;;;;;;;1.20;1.10;;;29.00;29.10;;;;;;5024109;28;20473;-88
2023/05/05 12:40:05;;;;;;;1.50;1.30;;;28.90;29.00;;;;;;5017849;28;21416;-89
2023/05/05 12:42:38;;;;;;;2.30;1.20;;;28.90;30.20;;;;;;5004207;28;20471;-87
2023/05/05 12:45:07;;;;;;;1.37;1.00;;;28.90;29.70;;;;;;5033553;28;20546;-87
2023/05/05 12:47:35;;;;;;;1.30;1.20;;;29.00;29.00;;;;;;5026683;28;21037;-88
2023/05/05 12:50:02;;;;;;;1.37;1.27;;;29.20;29.20;;;;;;5017408;28;20445;-88
2023/05/05 12:52:43;;;;;;;1.67;1.20;;;29.40;30.10;;;;;;5009785;28;20529;-88
2023/05/05 12:55:11;;;;;;;1.30;1.00;;;29.60;29.20;;;;;;5019860;28;20888;-88
2023/05/05 12:57:39;;;;;;;1.20;1.10;;;29.60;29.40;;;;;;5013486;28;20463;-89
2023/05/05 13:00:14;;;;;;;1.50;1.27;;;29.60;28.80;;;;;;5023808;28;20433;-88